MSC Orchestra — 3EJF3 — position and weather

sailwx.info

Track history (hours):
 
Tides and Currents Weather Stations Pressure Air Temp Water Temp Dewpoint Dewpoint Depression Visibility Wind Speed Wind Dir Waves Ship Positions

MSC Orchestra

Last reported at 2015-Mar-22 15:28 UTC. Time now 2015-Apr-01 17:52 UTC.
Position S 35°23' E 137°39'.
Warning: this ship's position is 10 days out of date.

Length 294 m; draft 7.6 m.

Type: Ship. MMSI: 372497000.

Date/timePositionNaut miles runAvg speedWind from/ knotsBaromVisibWave heightAir tempDewpointWater temp
2015-Mar-22 15:28S 35°23' E 137°39'1916.7
2015-Mar-22 14:21S 35°18' E 138°01'1316.4
2015-Mar-22 13:33S 35°08' E 138°11'1717.3
2015-Mar-22 12:33S 34°52' E 138°20'8 0.5
2015-Mar-21 21:05S 34°47' E 138°28'27812.2
2015-Mar-20 22:17S 38°36' E 141°44'1115.2
2015-Mar-20 21:33S 38°40' E 141°57'1515.2
2015-Mar-20 20:33S 38°45' E 142°16'1515.1
2015-Mar-20 19:33S 38°51' E 142°34'6913.6
2015-Mar-20 14:30S 38°49' E 144°02'88 3.0
2015-Mar-19 09:11S 39°07' E 145°53'711.1
2015-Mar-19 08:33S 39°08' E 146°01'1111.2
2015-Mar-19 07:33S 39°11' E 146°15'1110.9
2015-Mar-19 06:33S 39°09' E 146°29'1111.1
2015-Mar-19 05:33S 39°06' E 146°43'1110.9
2015-Mar-19 04:33S 39°01' E 146°56'1110.8
2015-Mar-19 03:33S 38°58' E 147°09'1110.7
2015-Mar-19 02:33S 38°55' E 147°22'1110.8
2015-Mar-19 01:33S 38°52' E 147°35'1110.7
2015-Mar-19 00:33S 38°49' E 147°48'1111.0
2015-Mar-18 23:33S 38°45' E 148°02'1111.2
2015-Mar-18 22:32S 38°41' E 148°16'1312.2
2015-Mar-18 21:28S 38°34' E 148°30'1011.4
2015-Mar-18 20:33S 38°29' E 148°41'1110.9
2015-Mar-18 19:33S 38°23' E 148°52'1111.2
2015-Mar-18 18:33S 38°16' E 149°04'1111.3
2015-Mar-18 17:33S 38°10' E 149°16'1211.0
2015-Mar-18 16:27S 38°04' E 149°29'1110.9
2015-Mar-18 15:29S 37°58' E 149°41'1210.9
2015-Mar-18 14:21S 37°51' E 149°53'911.0
2015-Mar-18 13:32S 37°46' E 150°03'1210.2
2015-Mar-18 12:20S 37°38' E 150°14'910.8
2015-Mar-18 11:31S 37°29' E 150°17'1010.6
2015-Mar-18 10:33S 37°19' E 150°21'1110.3
2015-Mar-18 09:27S 37°09' E 150°25'257 6.0
2015-Mar-16 14:21S 33°07' E 152°11'1518.6
2015-Mar-16 13:33S 32°56' E 152°24'1818.3
2015-Mar-16 12:33S 32°43' E 152°39'29818.6
2015-Mar-15 20:31S 27°51' E 153°51'1919.5
2015-Mar-15 19:34S 27°33' E 153°49'1817.5
2015-Mar-15 18:31S 27°15' E 153°44'1717.4
2015-Mar-15 17:34S 27°00' E 153°36'1817.7
2015-Mar-15 16:33S 26°48' E 153°21'9 9.4
2015-Mar-15 15:33S 26°49' E 153°10'1515.0
2015-Mar-15 14:34S 27°03' E 153°16'1413.8
2015-Mar-15 13:33S 27°16' E 153°15'8 7.8
2015-Mar-15 12:31S 27°23' E 153°10'0 0.0
2015-Mar-15 11:33S 27°23' E 153°10'0 0.0
2015-Mar-15 10:33S 27°23' E 153°10'0 0.0
2015-Mar-15 09:33S 27°23' E 153°10'0 0.0
2015-Mar-15 08:32S 27°23' E 153°10'0 0.0
2015-Mar-15 07:32S 27°23' E 153°10'0 0.0
2015-Mar-15 06:31S 27°23' E 153°10'0 0.0
2015-Mar-15 05:31S 27°23' E 153°10'0 0.0
2015-Mar-15 04:33S 27°23' E 153°10'0 0.0
2015-Mar-15 03:33S 27°23' E 153°10'1 0.5
2015-Mar-15 02:33S 27°23' E 153°09'9 9.2
2015-Mar-15 01:33S 27°16' E 153°16'1313.3
2015-Mar-15 00:34S 27°03' E 153°17'1515.3
2015-Mar-14 23:33S 26°50' E 153°09'8 8.5
2015-Mar-14 22:33S 26°42' E 153°12'8 7.7
2015-Mar-14 21:33S 26°36' E 153°17'2015.9
2015-Mar-14 20:20S 26°17' E 153°26'1416.0
2015-Mar-14 19:26S 26°04' E 153°32'  
Track history (hours):
 
Tides and Currents Weather Stations Pressure Air Temp Water Temp Dewpoint Dewpoint Depression Visibility Wind Speed Wind Dir Waves Ship Positions

MSC Orchestra

Last reported at 2015-Mar-22 15:28 UTC. Time now 2015-Apr-01 17:52 UTC.
Position S 35°23' E 137°39'.
Warning: this ship's position is 10 days out of date.

Length 294 m; draft 7.6 m.

Type: Ship. MMSI: 372497000.

Date/timePositionNaut miles runAvg speedWind from/ knotsBaromVisibWave heightAir tempDewpointWater temp
2015-Mar-22 15:28S 35°23' E 137°39'1916.7
2015-Mar-22 14:21S 35°18' E 138°01'1316.4
2015-Mar-22 13:33S 35°08' E 138°11'1717.3
2015-Mar-22 12:33S 34°52' E 138°20'8 0.5
2015-Mar-21 21:05S 34°47' E 138°28'27812.2
2015-Mar-20 22:17S 38°36' E 141°44'1115.2
2015-Mar-20 21:33S 38°40' E 141°57'1515.2
2015-Mar-20 20:33S 38°45' E 142°16'1515.1
2015-Mar-20 19:33S 38°51' E 142°34'6913.6
2015-Mar-20 14:30S 38°49' E 144°02'88 3.0
2015-Mar-19 09:11S 39°07' E 145°53'711.1
2015-Mar-19 08:33S 39°08' E 146°01'1111.2
2015-Mar-19 07:33S 39°11' E 146°15'1110.9
2015-Mar-19 06:33S 39°09' E 146°29'1111.1
2015-Mar-19 05:33S 39°06' E 146°43'1110.9
2015-Mar-19 04:33S 39°01' E 146°56'1110.8
2015-Mar-19 03:33S 38°58' E 147°09'1110.7
2015-Mar-19 02:33S 38°55' E 147°22'1110.8
2015-Mar-19 01:33S 38°52' E 147°35'1110.7
2015-Mar-19 00:33S 38°49' E 147°48'1111.0
2015-Mar-18 23:33S 38°45' E 148°02'1111.2
2015-Mar-18 22:32S 38°41' E 148°16'1312.2
2015-Mar-18 21:28S 38°34' E 148°30'1011.4
2015-Mar-18 20:33S 38°29' E 148°41'1110.9
2015-Mar-18 19:33S 38°23' E 148°52'1111.2
2015-Mar-18 18:33S 38°16' E 149°04'1111.3
2015-Mar-18 17:33S 38°10' E 149°16'1211.0
2015-Mar-18 16:27S 38°04' E 149°29'1110.9
2015-Mar-18 15:29S 37°58' E 149°41'1210.9
2015-Mar-18 14:21S 37°51' E 149°53'911.0
2015-Mar-18 13:32S 37°46' E 150°03'1210.2
2015-Mar-18 12:20S 37°38' E 150°14'910.8
2015-Mar-18 11:31S 37°29' E 150°17'1010.6
2015-Mar-18 10:33S 37°19' E 150°21'1110.3
2015-Mar-18 09:27S 37°09' E 150°25'257 6.0
2015-Mar-16 14:21S 33°07' E 152°11'1518.6
2015-Mar-16 13:33S 32°56' E 152°24'1818.3
2015-Mar-16 12:33S 32°43' E 152°39'29818.6
2015-Mar-15 20:31S 27°51' E 153°51'1919.5
2015-Mar-15 19:34S 27°33' E 153°49'1817.5
2015-Mar-15 18:31S 27°15' E 153°44'1717.4
2015-Mar-15 17:34S 27°00' E 153°36'1817.7
2015-Mar-15 16:33S 26°48' E 153°21'9 9.4
2015-Mar-15 15:33S 26°49' E 153°10'1515.0
2015-Mar-15 14:34S 27°03' E 153°16'1413.8
2015-Mar-15 13:33S 27°16' E 153°15'8 7.8
2015-Mar-15 12:31S 27°23' E 153°10'0 0.0
2015-Mar-15 11:33S 27°23' E 153°10'0 0.0
2015-Mar-15 10:33S 27°23' E 153°10'0 0.0
2015-Mar-15 09:33S 27°23' E 153°10'0 0.0
2015-Mar-15 08:32S 27°23' E 153°10'0 0.0
2015-Mar-15 07:32S 27°23' E 153°10'0 0.0
2015-Mar-15 06:31S 27°23' E 153°10'0 0.0
2015-Mar-15 05:31S 27°23' E 153°10'0 0.0
2015-Mar-15 04:33S 27°23' E 153°10'0 0.0
2015-Mar-15 03:33S 27°23' E 153°10'1 0.5
2015-Mar-15 02:33S 27°23' E 153°09'9 9.2
2015-Mar-15 01:33S 27°16' E 153°16'1313.3
2015-Mar-15 00:34S 27°03' E 153°17'1515.3
2015-Mar-14 23:33S 26°50' E 153°09'8 8.5
2015-Mar-14 22:33S 26°42' E 153°12'8 7.7
2015-Mar-14 21:33S 26°36' E 153°17'2015.9
2015-Mar-14 20:20S 26°17' E 153°26'1416.0
2015-Mar-14 19:26S 26°04' E 153°32'  

Dump ship's entire track history